Time;durP1;ratioP1;P1;durP2;ratioP2;P2;SDS_P1;SDS_P2;PMS_P1;PMS_P2;Temp;Humidity;BMP_temperature;BMP_pressure;BME280_temperature;BME280_humidity;BME280_pressure;Samples;Min_cycle;Max_cycle;Signal;HPM_P1;HPM_P2
2023/12/03 00:08:54;;;;;;;2.40;1.50;;;;;;;;;;20830426;28;20213;-70
2023/12/03 00:18:55;;;;;;;1.57;1.17;;;;;;;;;;20870869;28;20218;-71
2023/12/03 00:28:57;;;;;;;2.17;1.60;;;;;;;;;;20854809;28;20213;-70
2023/12/03 00:38:59;;;;;;;1.77;1.40;;;;;;;;;;20870894;28;20292;-71
2023/12/03 00:49:01;;;;;;;2.20;1.47;;;;;;;;;;20865904;28;20222;-70
2023/12/03 00:59:03;;;;;;;2.27;1.83;;;;;;;;;;20865773;28;20291;-70
2023/12/03 01:09:06;;;;;;;2.17;1.60;;;;;;;;;;20884330;28;20222;-70
2023/12/03 01:19:09;;;;;;;2.10;1.60;;;;;;;;;;20884110;28;20230;-70
2023/12/03 01:29:10;;;;;;;6.10;2.33;;;;;;;;;;20849468;28;20236;-70
2023/12/03 01:39:12;;;;;;;2.13;1.67;;;;;;;;;;20867910;28;20222;-70
2023/12/03 01:49:14;;;;;;;2.57;1.80;;;;;;;;;;20873910;28;20312;-70
2023/12/03 01:59:16;;;;;;;2.67;1.63;;;;;;;;;;20850457;28;20229;-70
2023/12/03 02:09:19;;;;;;;2.63;2.07;;;;;;;;;;20847148;28;20226;-70
2023/12/03 02:19:20;;;;;;;2.30;1.67;;;;;;;;;;20862932;28;20225;-70
2023/12/03 02:29:22;;;;;;;1.80;1.53;;;;;;;;;;20889479;28;20751;-70
2023/12/03 02:39:24;;;;;;;2.47;1.63;;;;;;;;;;20865440;28;20229;-70
2023/12/03 02:49:26;;;;;;;2.60;1.90;;;;;;;;;;20843748;28;20342;-70
2023/12/03 02:59:27;;;;;;;2.20;1.50;;;;;;;;;;20863535;28;20221;-69
2023/12/03 03:09:29;;;;;;;2.47;1.53;;;;;;;;;;20895053;28;20268;-69
2023/12/03 03:19:31;;;;;;;2.33;1.40;;;;;;;;;;20861542;28;20217;-69
2023/12/03 03:29:35;;;;;;;2.60;1.90;;;-1.70;99.90;;;;;;20906599;28;20222;-69
2023/12/03 03:39:37;;;;;;;1.37;1.20;;;;;;;;;;20864235;28;20688;-69
2023/12/03 03:49:39;;;;;;;1.80;1.37;;;;;;;;;;20862389;28;20282;-69
2023/12/03 03:59:44;;;;;;;2.23;1.67;;;;;;;;;;20853635;28;20210;-69
2023/12/03 04:09:46;;;;;;;2.00;1.63;;;;;;;;;;20866051;28;20217;-69
2023/12/03 04:19:48;;;;;;;2.77;2.37;;;;;;;;;;20902688;28;20732;-69
2023/12/03 04:29:50;;;;;;;3.07;2.37;;;;;;;;;;20893658;28;20266;-69
2023/12/03 04:39:52;;;;;;;2.80;1.83;;;;;;;;;;20886379;28;20217;-70
2023/12/03 04:49:54;;;;;;;2.67;1.87;;;;;;;;;;20900094;28;20229;-70
2023/12/03 04:59:56;;;;;;;2.60;1.80;;;;;;;;;;20896871;28;20256;-69
2023/12/03 05:09:58;;;;;;;1.47;1.37;;;;;;;;;;20871518;28;20286;-69
2023/12/03 05:20:00;;;;;;;2.43;1.70;;;;;;;;;;20885023;28;20222;-69
2023/12/03 05:30:02;;;;;;;3.93;2.30;;;;;;;;;;20816165;23;20239;-86
2023/12/03 05:40:04;;;;;;;3.77;2.57;;;;;;;;;;20797774;28;20230;-86
2023/12/03 05:50:06;;;;;;;4.93;2.77;;;;;;;;;;20771034;28;20265;-88
2023/12/03 06:00:08;;;;;;;2.67;1.80;;;;;;;;;;20777976;28;20296;-88
2023/12/03 06:10:11;;;;;;;2.53;1.93;;;;;;;;;;20724376;28;20309;-87
2023/12/03 06:20:13;;;;;;;2.27;2.03;;;;;;;;;;20733749;28;20281;-87
2023/12/03 06:30:15;;;;;;;3.03;2.20;;;;;;;;;;20723203;28;20628;-89
2023/12/03 06:50:33;;;;;;;3.33;1.97;;;;;;;;;;21004364;27;20575;-67
2023/12/03 07:00:36;;;;;;;3.27;2.17;;;;;;;;;;20918514;28;20220;-67
2023/12/03 07:10:38;;;;;;;4.77;2.60;;;;;;;;;;20908467;28;20210;-67
2023/12/03 07:20:40;;;;;;;1.77;1.43;;;;;;;;;;20928570;28;20660;-67
2023/12/03 07:30:42;;;;;;;2.80;1.50;;;;;;;;;;20864277;28;20205;-67
2023/12/03 07:40:43;;;;;;;2.97;2.03;;;;;;;;;;20895213;28;20205;-67
2023/12/03 07:50:45;;;;;;;3.03;2.00;;;;;;;;;;20895090;28;20214;-67
2023/12/03 08:00:47;;;;;;;3.93;2.17;;;;;;;;;;20852098;28;20816;-67
2023/12/03 08:10:49;;;;;;;3.93;1.87;;;;;;;;;;20845062;28;20206;-67
2023/12/03 08:20:50;;;;;;;3.03;2.13;;;;;;;;;;20798885;28;20249;-67
2023/12/03 08:30:52;;;;;;;3.10;2.27;;;;;;;;;;20793831;28;20237;-68
2023/12/03 08:40:55;;;;;;;3.77;2.40;;;;;;;;;;20787371;28;20265;-68
2023/12/03 08:50:56;;;;;;;3.20;2.43;;;;;;;;;;20788541;28;20226;-68
2023/12/03 09:00:59;;;;;;;3.17;2.07;;;;;;;;;;20806356;28;20273;-69
2023/12/03 09:11:01;;;;;;;4.70;3.03;;;;;;;;;;20776016;28;20222;-68
2023/12/03 09:21:03;;;;;;;3.00;2.30;;;;;;;;;;20786176;28;20579;-68
2023/12/03 09:31:05;;;;;;;3.50;2.27;;;;;;;;;;20781165;28;20705;-68
2023/12/03 09:41:13;;;;;;;2.93;2.47;;;;;;;;;;20792594;28;20754;-68
2023/12/03 09:51:19;;;;;;;3.90;2.53;;;-0.90;99.90;;;;;;20791591;28;20218;-68
2023/12/03 10:01:22;;;;;;;3.30;2.43;;;-0.60;99.90;;;;;;20784361;28;20519;-68
2023/12/03 10:11:28;;;;;;;2.90;1.87;;;-0.60;99.90;;;;;;20811023;28;20234;-68
2023/12/03 10:21:29;;;;;;;5.70;3.23;;;;;;;;;;20800006;28;20678;-68
2023/12/03 10:31:32;;;;;;;2.77;2.17;;;;;;;;;;20774530;28;20272;-67
2023/12/03 10:41:34;;;;;;;5.13;2.67;;;;;;;;;;20782961;28;20218;-66
2023/12/03 10:51:36;;;;;;;3.60;2.67;;;;;;;;;;20782071;28;20658;-66
2023/12/03 11:01:41;;;;;;;2.43;2.03;;;0.10;99.90;;;;;;20786350;28;20272;-66
2023/12/03 11:11:43;;;;;;;1.87;1.70;;;;;;;;;;20764256;28;20648;-66
2023/12/03 11:21:48;;;;;;;3.63;2.43;;;;;;;;;;20778900;28;20770;-66
2023/12/03 11:31:50;;;;;;;3.80;2.63;;;;;;;;;;20795092;23;20230;-69
2023/12/03 11:42:01;;;;;;;3.67;2.90;;;;;;;;;;20778146;28;20220;-68
2023/12/03 11:52:03;;;;;;;4.03;2.87;;;;;;;;;;20776043;28;20261;-67
2023/12/03 12:02:05;;;;;;;2.40;1.87;;;;;;;;;;20769261;28;20288;-66
2023/12/03 12:12:07;;;;;;;5.23;2.70;;;;;;;;;;20755388;28;20280;-68
2023/12/03 12:22:08;;;;;;;3.73;2.37;;;;;;;;;;20757889;28;20328;-67
2023/12/03 12:32:10;;;;;;;1.90;1.30;;;;;;;;;;20773219;28;20272;-68
2023/12/03 12:42:23;;;;;;;5.10;2.80;;;;;;;;;;20778663;28;20285;-68
2023/12/03 12:52:25;;;;;;;3.13;2.00;;;;;;;;;;20768699;28;20564;-68
2023/12/03 13:02:26;;;;;;;4.67;2.70;;;;;;;;;;20799925;28;20260;-68
2023/12/03 13:12:29;;;;;;;3.50;2.30;;;;;;;;;;20791607;28;20234;-68
2023/12/03 13:22:33;;;;;;;3.43;2.40;;;;;;;;;;20769762;28;20218;-68
2023/12/03 13:32:41;;;;;;;2.57;1.40;;;-0.20;99.90;;;;;;20746422;28;20616;-69
2023/12/03 13:42:50;;;;;;;2.23;1.57;;;;;;;;;;20764305;28;20215;-69
2023/12/03 13:52:52;;;;;;;2.27;1.27;;;;;;;;;;20764796;28;20223;-68
2023/12/03 14:02:54;;;;;;;2.10;1.27;;;;;;;;;;20769105;28;20569;-70
2023/12/03 14:12:56;;;;;;;3.33;2.10;;;;;;;;;;20757130;28;20285;-69
2023/12/03 14:22:58;;;;;;;3.50;2.60;;;;;;;;;;20754497;28;20211;-70
2023/12/03 14:33:00;;;;;;;1.30;1.20;;;;;;;;;;20755429;28;20226;-70
2023/12/03 14:43:02;;;;;;;2.67;2.07;;;;;;;;;;20759620;28;20218;-70
2023/12/03 14:53:04;;;;;;;2.30;1.83;;;;;;;;;;20793647;28;20265;-69
2023/12/03 15:03:06;;;;;;;3.43;1.83;;;;;;;;;;20780138;28;20218;-70
2023/12/03 15:13:08;;;;;;;2.43;1.70;;;;;;;;;;20762975;28;20226;-70
2023/12/03 15:23:10;;;;;;;3.00;2.00;;;;;;;;;;20787682;28;20219;-70
2023/12/03 15:33:12;;;;;;;2.60;1.80;;;;;;;;;;20813146;28;20219;-70
2023/12/03 15:43:14;;;;;;;4.07;2.23;;;;;;;;;;20764285;28;20215;-69
2023/12/03 15:53:15;;;;;;;3.97;2.83;;;;;;;;;;20764249;28;20638;-70
2023/12/03 16:03:17;;;;;;;3.70;2.30;;;;;;;;;;20767002;28;20214;-70
2023/12/03 16:13:20;;;;;;;3.67;2.57;;;;;;;;;;20777776;28;20230;-70
2023/12/03 16:23:21;;;;;;;4.60;3.10;;;;;;;;;;20780248;28;20230;-70
2023/12/03 16:33:23;;;;;;;4.37;2.90;;;;;;;;;;20785807;28;20253;-70
2023/12/03 16:43:28;;;;;;;3.17;2.40;;;;;;;;;;20766477;28;20227;-70
2023/12/03 16:53:30;;;;;;;1.87;1.73;;;;;;;;;;20780348;28;20554;-70
2023/12/03 17:03:32;;;;;;;4.37;2.77;;;;;;;;;;20788569;28;20219;-70
2023/12/03 17:13:34;;;;;;;4.83;2.67;;;;;;;;;;20782130;28;20561;-70
2023/12/03 17:23:36;;;;;;;3.43;2.60;;;;;;;;;;20771084;28;20268;-70
2023/12/03 17:33:38;;;;;;;3.90;3.17;;;;;;;;;;20786753;28;20635;-70
2023/12/03 17:43:42;;;;;;;3.40;1.80;;;-1.00;99.90;;;;;;20800652;28;20226;-70
2023/12/03 17:53:46;;;;;;;4.47;2.20;;;;;;;;;;20794291;28;20281;-70
2023/12/03 18:03:48;;;;;;;3.87;2.40;;;;;;;;;;20770715;28;20286;-70
2023/12/03 18:13:51;;;;;;;3.77;2.90;;;;;;;;;;20751548;28;20243;-70
2023/12/03 18:23:53;;;;;;;3.07;2.60;;;;;;;;;;20804662;28;20226;-70
2023/12/03 18:33:55;;;;;;;5.37;3.47;;;;;;;;;;20792315;28;20245;-71
2023/12/03 18:43:57;;;;;;;2.43;1.87;;;;;;;;;;20766774;28;20272;-72
2023/12/03 18:53:59;;;;;;;4.97;3.00;;;;;;;;;;20770446;28;20668;-72
2023/12/03 19:04:01;;;;;;;3.57;2.50;;;;;;;;;;20775808;28;20210;-72
2023/12/03 19:14:03;;;;;;;4.57;2.87;;;;;;;;;;20781365;28;20234;-72
2023/12/03 19:24:05;;;;;;;3.23;2.20;;;;;;;;;;20763745;28;20226;-72
2023/12/03 19:34:06;;;;;;;3.50;2.30;;;;;;;;;;20774185;28;20253;-72
2023/12/03 19:44:08;;;;;;;3.87;2.63;;;;;;;;;;20818032;23;20230;-86
2023/12/03 20:04:24;;;;;;;2.13;1.73;;;;;;;;;;20971028;27;20573;-69
2023/12/03 20:14:26;;;;;;;2.00;1.80;;;;;;;;;;20895153;28;20574;-70
2023/12/03 20:24:29;;;;;;;3.13;2.60;;;;;;;;;;20913524;28;20202;-70
2023/12/03 20:34:31;;;;;;;2.67;2.07;;;;;;;;;;20871426;28;20320;-70
2023/12/03 20:44:37;;;;;;;2.37;2.07;;;;;;;;;;20837122;22;20653;-78
2023/12/03 20:54:39;;;;;;;1.93;1.47;;;;;;;;;;20846173;23;20238;-86
2023/12/03 21:04:42;;;;;;;3.07;2.27;;;;;;;;;;20874289;28;20264;-85
2023/12/03 21:14:44;;;;;;;3.20;2.33;;;;;;;;;;20821310;28;20218;-86
2023/12/03 21:24:46;;;;;;;2.77;2.03;;;;;;;;;;20807981;28;20703;-86
2023/12/03 21:34:48;;;;;;;2.57;1.90;;;;;;;;;;20829313;28;20686;-86
2023/12/03 21:44:52;;;;;;;3.13;2.33;;;;;;;;;;20808503;28;20222;-89
2023/12/03 21:54:59;;;;;;;2.70;2.33;;;;;;;;;;20859305;28;20234;-85
2023/12/03 22:05:00;;;;;;;2.80;2.50;;;;;;;;;;20826037;28;20236;-85
2023/12/03 22:15:06;;;;;;;2.93;2.20;;;;;;;;;;20804257;28;20543;-85
2023/12/03 22:25:08;;;;;;;2.27;1.73;;;;;;;;;;20857570;28;20226;-84
2023/12/03 22:35:15;;;;;;;2.40;1.80;;;;;;;;;;20819209;28;20287;-86
2023/12/03 22:45:42;;;;;;;3.07;2.30;;;;;;;;;;20830714;28;20695;-84
2023/12/03 22:55:43;;;;;;;2.80;1.97;;;;;;;;;;20818756;28;20296;-84
2023/12/03 23:16:00;;;;;;;4.17;2.67;;;;;;;;;;21315430;27;20565;-68
2023/12/03 23:26:02;;;;;;;2.63;1.87;;;;;;;;;;21242032;27;20621;-69
2023/12/03 23:36:04;;;;;;;2.90;2.30;;;;;;;;;;21257678;27;20214;-67
2023/12/03 23:46:06;;;;;;;4.00;2.63;;;;;;;;;;21224435;27;20203;-67
2023/12/03 23:56:09;;;;;;;2.70;1.83;;;-2.00;99.90;;;;;;21225282;27;20314;-67
